sensor_id;sensor_type;location;lat;lon;timestamp;P1;durP1;ratioP1;P2;durP2;ratioP2
54157;SDS011;40065;49.894;10.358;2023-07-20T00:03:30;5.20;;;3.08;;
54157;SDS011;40065;49.894;10.358;2023-07-20T00:08:32;6.93;;;3.45;;
54157;SDS011;40065;49.894;10.358;2023-07-20T00:13:34;6.40;;;3.17;;
54157;SDS011;40065;49.894;10.358;2023-07-20T00:18:36;6.85;;;2.97;;
54157;SDS011;40065;49.894;10.358;2023-07-20T00:23:37;5.45;;;2.95;;
54157;SDS011;40065;49.894;10.358;2023-07-20T00:28:39;5.30;;;2.28;;
54157;SDS011;40065;49.894;10.358;2023-07-20T00:33:41;5.80;;;2.78;;
54157;SDS011;40065;49.894;10.358;2023-07-20T00:38:43;6.40;;;2.85;;
54157;SDS011;40065;49.894;10.358;2023-07-20T00:43:45;3.65;;;2.17;;
54157;SDS011;40065;49.894;10.358;2023-07-20T00:48:47;6.07;;;2.30;;
54157;SDS011;40065;49.894;10.358;2023-07-20T00:53:49;7.55;;;3.33;;
54157;SDS011;40065;49.894;10.358;2023-07-20T00:58:51;7.45;;;2.50;;
54157;SDS011;40065;49.894;10.358;2023-07-20T01:09:18;4.35;;;2.80;;
54157;SDS011;40065;49.894;10.358;2023-07-20T01:14:21;6.97;;;2.92;;
54157;SDS011;40065;49.894;10.358;2023-07-20T01:19:24;5.35;;;2.28;;
54157;SDS011;40065;49.894;10.358;2023-07-20T01:24:31;7.78;;;3.45;;
54157;SDS011;40065;49.894;10.358;2023-07-20T01:35:27;11.07;;;4.22;;
54157;SDS011;40065;49.894;10.358;2023-07-20T01:40:31;10.93;;;4.32;;
54157;SDS011;40065;49.894;10.358;2023-07-20T01:45:33;12.73;;;4.60;;
54157;SDS011;40065;49.894;10.358;2023-07-20T01:50:35;5.63;;;3.25;;
54157;SDS011;40065;49.894;10.358;2023-07-20T01:55:36;8.55;;;3.90;;
54157;SDS011;40065;49.894;10.358;2023-07-20T02:00:38;6.65;;;3.03;;
54157;SDS011;40065;49.894;10.358;2023-07-20T02:05:43;3.80;;;2.25;;
54157;SDS011;40065;49.894;10.358;2023-07-20T02:10:46;4.85;;;2.33;;
54157;SDS011;40065;49.894;10.358;2023-07-20T02:15:49;9.83;;;4.43;;
54157;SDS011;40065;49.894;10.358;2023-07-20T02:20:52;10.40;;;3.67;;
54157;SDS011;40065;49.894;10.358;2023-07-20T02:25:55;8.40;;;3.97;;
54157;SDS011;40065;49.894;10.358;2023-07-20T02:30:57;10.70;;;4.82;;
54157;SDS011;40065;49.894;10.358;2023-07-20T02:35:59;5.65;;;3.35;;
54157;SDS011;40065;49.894;10.358;2023-07-20T02:41:00;10.15;;;4.63;;
54157;SDS011;40065;49.894;10.358;2023-07-20T02:46:02;9.43;;;5.38;;
54157;SDS011;40065;49.894;10.358;2023-07-20T02:51:04;4.72;;;2.97;;
54157;SDS011;40065;49.894;10.358;2023-07-20T02:56:06;12.75;;;4.25;;
54157;SDS011;40065;49.894;10.358;2023-07-20T03:01:08;8.95;;;4.35;;
54157;SDS011;40065;49.894;10.358;2023-07-20T03:06:13;4.55;;;2.67;;
54157;SDS011;40065;49.894;10.358;2023-07-20T03:11:16;9.00;;;4.35;;
54157;SDS011;40065;49.894;10.358;2023-07-20T03:16:18;5.97;;;2.85;;
54157;SDS011;40065;49.894;10.358;2023-07-20T03:26:24;5.68;;;3.90;;
54157;SDS011;40065;49.894;10.358;2023-07-20T03:31:26;9.55;;;5.18;;
54157;SDS011;40065;49.894;10.358;2023-07-20T03:36:28;7.07;;;4.15;;
54157;SDS011;40065;49.894;10.358;2023-07-20T03:41:30;9.45;;;4.50;;
54157;SDS011;40065;49.894;10.358;2023-07-20T03:46:32;11.45;;;5.63;;
54157;SDS011;40065;49.894;10.358;2023-07-20T03:51:35;8.30;;;4.60;;
54157;SDS011;40065;49.894;10.358;2023-07-20T03:56:37;10.18;;;5.10;;
54157;SDS011;40065;49.894;10.358;2023-07-20T04:01:39;7.03;;;3.70;;
54157;SDS011;40065;49.894;10.358;2023-07-20T04:06:41;10.30;;;4.15;;
54157;SDS011;40065;49.894;10.358;2023-07-20T04:11:45;9.43;;;3.78;;
54157;SDS011;40065;49.894;10.358;2023-07-20T04:16:47;5.97;;;3.72;;
54157;SDS011;40065;49.894;10.358;2023-07-20T04:21:49;7.53;;;3.17;;
54157;SDS011;40065;49.894;10.358;2023-07-20T04:26:51;7.38;;;4.05;;
54157;SDS011;40065;49.894;10.358;2023-07-20T04:31:53;9.45;;;4.55;;
54157;SDS011;40065;49.894;10.358;2023-07-20T04:36:55;11.00;;;4.78;;
54157;SDS011;40065;49.894;10.358;2023-07-20T04:41:58;11.47;;;4.73;;
54157;SDS011;40065;49.894;10.358;2023-07-20T04:47:00;8.50;;;4.28;;
54157;SDS011;40065;49.894;10.358;2023-07-20T04:52:04;7.75;;;4.50;;
54157;SDS011;40065;49.894;10.358;2023-07-20T04:57:11;8.75;;;3.65;;
54157;SDS011;40065;49.894;10.358;2023-07-20T05:02:19;6.75;;;3.42;;
54157;SDS011;40065;49.894;10.358;2023-07-20T05:07:21;8.63;;;4.05;;
54157;SDS011;40065;49.894;10.358;2023-07-20T05:12:23;6.50;;;3.83;;
54157;SDS011;40065;49.894;10.358;2023-07-20T05:17:25;9.70;;;4.20;;
54157;SDS011;40065;49.894;10.358;2023-07-20T05:22:27;8.13;;;3.55;;
54157;SDS011;40065;49.894;10.358;2023-07-20T05:27:29;6.55;;;3.40;;
54157;SDS011;40065;49.894;10.358;2023-07-20T05:32:31;7.53;;;3.80;;
54157;SDS011;40065;49.894;10.358;2023-07-20T05:37:33;7.40;;;3.13;;
54157;SDS011;40065;49.894;10.358;2023-07-20T05:42:35;7.03;;;3.03;;
54157;SDS011;40065;49.894;10.358;2023-07-20T05:47:36;6.45;;;2.85;;
54157;SDS011;40065;49.894;10.358;2023-07-20T05:52:39;7.85;;;3.05;;
54157;SDS011;40065;49.894;10.358;2023-07-20T05:57:41;6.53;;;2.90;;
54157;SDS011;40065;49.894;10.358;2023-07-20T06:02:44;4.30;;;2.80;;
54157;SDS011;40065;49.894;10.358;2023-07-20T06:07:47;4.55;;;2.65;;
54157;SDS011;40065;49.894;10.358;2023-07-20T06:12:49;7.70;;;3.00;;
54157;SDS011;40065;49.894;10.358;2023-07-20T06:17:51;8.52;;;3.40;;
54157;SDS011;40065;49.894;10.358;2023-07-20T06:22:53;5.57;;;2.83;;
54157;SDS011;40065;49.894;10.358;2023-07-20T06:27:55;6.93;;;2.50;;
54157;SDS011;40065;49.894;10.358;2023-07-20T06:32:57;8.98;;;2.50;;
54157;SDS011;40065;49.894;10.358;2023-07-20T06:37:59;8.95;;;2.60;;
54157;SDS011;40065;49.894;10.358;2023-07-20T06:43:21;4.85;;;2.50;;
54157;SDS011;40065;49.894;10.358;2023-07-20T06:48:26;4.50;;;2.50;;
54157;SDS011;40065;49.894;10.358;2023-07-20T06:53:28;4.30;;;2.30;;
54157;SDS011;40065;49.894;10.358;2023-07-20T06:58:30;5.43;;;2.50;;
54157;SDS011;40065;49.894;10.358;2023-07-20T07:03:32;3.90;;;2.10;;
54157;SDS011;40065;49.894;10.358;2023-07-20T07:08:35;5.23;;;2.00;;
54157;SDS011;40065;49.894;10.358;2023-07-20T07:13:37;5.40;;;2.00;;
54157;SDS011;40065;49.894;10.358;2023-07-20T07:18:39;2.90;;;1.80;;
54157;SDS011;40065;49.894;10.358;2023-07-20T07:23:41;3.42;;;1.90;;
54157;SDS011;40065;49.894;10.358;2023-07-20T07:28:44;2.78;;;1.85;;
54157;SDS011;40065;49.894;10.358;2023-07-20T07:33:46;3.35;;;1.73;;
54157;SDS011;40065;49.894;10.358;2023-07-20T07:38:48;6.50;;;1.88;;
54157;SDS011;40065;49.894;10.358;2023-07-20T07:44:09;5.93;;;2.20;;
54157;SDS011;40065;49.894;10.358;2023-07-20T07:49:12;4.65;;;1.83;;
54157;SDS011;40065;49.894;10.358;2023-07-20T07:54:14;3.72;;;1.83;;
54157;SDS011;40065;49.894;10.358;2023-07-20T07:59:16;6.72;;;2.20;;
54157;SDS011;40065;49.894;10.358;2023-07-20T08:04:18;6.00;;;2.13;;
54157;SDS011;40065;49.894;10.358;2023-07-20T08:09:20;5.68;;;2.22;;
54157;SDS011;40065;49.894;10.358;2023-07-20T08:14:22;7.88;;;1.77;;
54157;SDS011;40065;49.894;10.358;2023-07-20T08:19:24;4.68;;;1.63;;
54157;SDS011;40065;49.894;10.358;2023-07-20T08:24:26;5.18;;;2.17;;
54157;SDS011;40065;49.894;10.358;2023-07-20T08:29:28;5.25;;;2.35;;
54157;SDS011;40065;49.894;10.358;2023-07-20T08:34:30;4.63;;;2.05;;
54157;SDS011;40065;49.894;10.358;2023-07-20T08:39:32;4.40;;;1.88;;
54157;SDS011;40065;49.894;10.358;2023-07-20T08:44:39;5.45;;;2.10;;
54157;SDS011;40065;49.894;10.358;2023-07-20T08:49:44;5.28;;;1.55;;
54157;SDS011;40065;49.894;10.358;2023-07-20T08:54:48;4.43;;;1.60;;
54157;SDS011;40065;49.894;10.358;2023-07-20T08:59:51;7.80;;;2.22;;
54157;SDS011;40065;49.894;10.358;2023-07-20T09:04:54;5.63;;;1.80;;
54157;SDS011;40065;49.894;10.358;2023-07-20T09:09:57;5.80;;;1.85;;
54157;SDS011;40065;49.894;10.358;2023-07-20T09:14:59;8.43;;;1.88;;
54157;SDS011;40065;49.894;10.358;2023-07-20T09:20:02;5.03;;;1.50;;
54157;SDS011;40065;49.894;10.358;2023-07-20T09:25:16;3.17;;;1.17;;
54157;SDS011;40065;49.894;10.358;2023-07-20T09:30:25;3.72;;;1.35;;
54157;SDS011;40065;49.894;10.358;2023-07-20T09:35:32;3.63;;;1.10;;
54157;SDS011;40065;49.894;10.358;2023-07-20T09:40:43;7.53;;;1.30;;
54157;SDS011;40065;49.894;10.358;2023-07-20T09:45:48;4.93;;;1.15;;
54157;SDS011;40065;49.894;10.358;2023-07-20T09:50:53;2.10;;;0.98;;
54157;SDS011;40065;49.894;10.358;2023-07-20T09:55:57;2.85;;;0.93;;
54157;SDS011;40065;49.894;10.358;2023-07-20T10:01:00;1.80;;;1.10;;
54157;SDS011;40065;49.894;10.358;2023-07-20T10:06:08;7.03;;;1.48;;
54157;SDS011;40065;49.894;10.358;2023-07-20T10:11:15;4.93;;;1.42;;
54157;SDS011;40065;49.894;10.358;2023-07-20T10:16:26;4.35;;;1.30;;
54157;SDS011;40065;49.894;10.358;2023-07-20T10:21:33;2.28;;;1.00;;
54157;SDS011;40065;49.894;10.358;2023-07-20T10:26:43;2.88;;;1.17;;
54157;SDS011;40065;49.894;10.358;2023-07-20T10:31:45;3.92;;;0.98;;
54157;SDS011;40065;49.894;10.358;2023-07-20T10:36:47;3.08;;;1.17;;
54157;SDS011;40065;49.894;10.358;2023-07-20T10:41:59;3.80;;;1.13;;
54157;SDS011;40065;49.894;10.358;2023-07-20T10:47:06;2.90;;;1.05;;
54157;SDS011;40065;49.894;10.358;2023-07-20T10:52:12;2.47;;;1.00;;
54157;SDS011;40065;49.894;10.358;2023-07-20T10:57:24;3.42;;;1.35;;
54157;SDS011;40065;49.894;10.358;2023-07-20T11:02:30;2.10;;;1.15;;
54157;SDS011;40065;49.894;10.358;2023-07-20T11:18:18;1.70;;;0.90;;
54157;SDS011;40065;49.894;10.358;2023-07-20T11:23:21;3.83;;;1.07;;
54157;SDS011;40065;49.894;10.358;2023-07-20T11:28:22;2.33;;;1.20;;
54157;SDS011;40065;49.894;10.358;2023-07-20T11:33:24;2.03;;;1.05;;
54157;SDS011;40065;49.894;10.358;2023-07-20T11:38:26;2.20;;;1.00;;
54157;SDS011;40065;49.894;10.358;2023-07-20T11:43:28;2.55;;;1.02;;
54157;SDS011;40065;49.894;10.358;2023-07-20T11:48:30;1.67;;;0.80;;
54157;SDS011;40065;49.894;10.358;2023-07-20T11:53:32;2.00;;;1.00;;
54157;SDS011;40065;49.894;10.358;2023-07-20T11:58:35;3.15;;;1.17;;
54157;SDS011;40065;49.894;10.358;2023-07-20T12:03:36;2.67;;;1.20;;
54157;SDS011;40065;49.894;10.358;2023-07-20T12:08:39;3.72;;;1.15;;
54157;SDS011;40065;49.894;10.358;2023-07-20T12:13:42;1.58;;;0.82;;
54157;SDS011;40065;49.894;10.358;2023-07-20T12:18:48;2.72;;;0.82;;
54157;SDS011;40065;49.894;10.358;2023-07-20T12:23:49;1.37;;;0.70;;
54157;SDS011;40065;49.894;10.358;2023-07-20T12:28:52;2.23;;;0.87;;
54157;SDS011;40065;49.894;10.358;2023-07-20T12:33:54;2.17;;;0.90;;
54157;SDS011;40065;49.894;10.358;2023-07-20T12:38:59;1.98;;;0.80;;
54157;SDS011;40065;49.894;10.358;2023-07-20T12:44:02;3.22;;;0.82;;
54157;SDS011;40065;49.894;10.358;2023-07-20T12:49:04;1.63;;;0.80;;
54157;SDS011;40065;49.894;10.358;2023-07-20T12:54:06;1.80;;;0.80;;
54157;SDS011;40065;49.894;10.358;2023-07-20T12:59:08;4.80;;;1.10;;
54157;SDS011;40065;49.894;10.358;2023-07-20T13:04:10;7.23;;;1.07;;
54157;SDS011;40065;49.894;10.358;2023-07-20T13:09:14;2.75;;;0.93;;
54157;SDS011;40065;49.894;10.358;2023-07-20T13:14:16;2.40;;;0.90;;
54157;SDS011;40065;49.894;10.358;2023-07-20T13:19:18;2.30;;;0.90;;
54157;SDS011;40065;49.894;10.358;2023-07-20T13:24:20;2.60;;;0.80;;
54157;SDS011;40065;49.894;10.358;2023-07-20T13:29:22;1.52;;;0.63;;
54157;SDS011;40065;49.894;10.358;2023-07-20T13:34:26;2.13;;;0.90;;
54157;SDS011;40065;49.894;10.358;2023-07-20T13:39:32;1.85;;;0.80;;
54157;SDS011;40065;49.894;10.358;2023-07-20T13:44:34;1.95;;;0.88;;
54157;SDS011;40065;49.894;10.358;2023-07-20T13:49:37;1.98;;;0.90;;
54157;SDS011;40065;49.894;10.358;2023-07-20T13:54:48;2.05;;;0.75;;
54157;SDS011;40065;49.894;10.358;2023-07-20T13:59:54;3.20;;;0.70;;
54157;SDS011;40065;49.894;10.358;2023-07-20T14:04:56;1.57;;;0.50;;
54157;SDS011;40065;49.894;10.358;2023-07-20T14:10:01;1.30;;;0.55;;
54157;SDS011;40065;49.894;10.358;2023-07-20T14:15:06;1.58;;;0.70;;
54157;SDS011;40065;49.894;10.358;2023-07-20T14:20:08;1.20;;;0.60;;
54157;SDS011;40065;49.894;10.358;2023-07-20T14:25:13;4.45;;;0.77;;
54157;SDS011;40065;49.894;10.358;2023-07-20T14:30:19;3.58;;;0.70;;
54157;SDS011;40065;49.894;10.358;2023-07-20T14:35:21;1.67;;;0.70;;
54157;SDS011;40065;49.894;10.358;2023-07-20T14:40:26;1.83;;;0.80;;
54157;SDS011;40065;49.894;10.358;2023-07-20T14:45:28;1.65;;;0.95;;
54157;SDS011;40065;49.894;10.358;2023-07-20T14:50:30;2.22;;;0.90;;
54157;SDS011;40065;49.894;10.358;2023-07-20T15:00:34;1.70;;;0.70;;
54157;SDS011;40065;49.894;10.358;2023-07-20T15:05:36;1.40;;;0.68;;
54157;SDS011;40065;49.894;10.358;2023-07-20T15:10:39;2.22;;;0.70;;
54157;SDS011;40065;49.894;10.358;2023-07-20T15:15:41;1.55;;;0.70;;
54157;SDS011;40065;49.894;10.358;2023-07-20T15:20:44;1.50;;;0.70;;
54157;SDS011;40065;49.894;10.358;2023-07-20T15:25:46;1.92;;;0.73;;
54157;SDS011;40065;49.894;10.358;2023-07-20T15:30:48;2.05;;;0.80;;
54157;SDS011;40065;49.894;10.358;2023-07-20T15:35:51;1.95;;;0.90;;
54157;SDS011;40065;49.894;10.358;2023-07-20T15:40:53;5.00;;;0.80;;
54157;SDS011;40065;49.894;10.358;2023-07-20T15:46:00;1.48;;;0.80;;
54157;SDS011;40065;49.894;10.358;2023-07-20T15:51:06;4.28;;;1.20;;
54157;SDS011;40065;49.894;10.358;2023-07-20T15:56:08;1.75;;;0.77;;
54157;SDS011;40065;49.894;10.358;2023-07-20T16:01:10;1.95;;;0.77;;
54157;SDS011;40065;49.894;10.358;2023-07-20T16:06:12;1.73;;;0.98;;
54157;SDS011;40065;49.894;10.358;2023-07-20T16:11:14;2.15;;;0.80;;
54157;SDS011;40065;49.894;10.358;2023-07-20T16:16:16;1.58;;;0.80;;
54157;SDS011;40065;49.894;10.358;2023-07-20T16:21:18;1.92;;;0.95;;
54157;SDS011;40065;49.894;10.358;2023-07-20T16:26:20;2.00;;;0.98;;
54157;SDS011;40065;49.894;10.358;2023-07-20T16:31:22;2.47;;;0.77;;
54157;SDS011;40065;49.894;10.358;2023-07-20T16:36:24;1.90;;;0.90;;
54157;SDS011;40065;49.894;10.358;2023-07-20T16:41:26;1.70;;;0.85;;
54157;SDS011;40065;49.894;10.358;2023-07-20T16:46:32;2.03;;;0.85;;
54157;SDS011;40065;49.894;10.358;2023-07-20T16:51:37;3.05;;;0.90;;
54157;SDS011;40065;49.894;10.358;2023-07-20T16:56:39;2.03;;;0.90;;
54157;SDS011;40065;49.894;10.358;2023-07-20T17:01:42;1.45;;;0.85;;
54157;SDS011;40065;49.894;10.358;2023-07-20T17:06:45;2.55;;;0.80;;
54157;SDS011;40065;49.894;10.358;2023-07-20T17:11:48;1.50;;;0.75;;
54157;SDS011;40065;49.894;10.358;2023-07-20T17:16:50;2.13;;;0.90;;
54157;SDS011;40065;49.894;10.358;2023-07-20T17:26:55;2.28;;;0.85;;
54157;SDS011;40065;49.894;10.358;2023-07-20T17:31:59;1.98;;;0.70;;
54157;SDS011;40065;49.894;10.358;2023-07-20T17:37:01;2.17;;;0.80;;
54157;SDS011;40065;49.894;10.358;2023-07-20T17:42:06;2.50;;;1.10;;
54157;SDS011;40065;49.894;10.358;2023-07-20T17:47:11;3.25;;;1.25;;
54157;SDS011;40065;49.894;10.358;2023-07-20T17:52:16;3.28;;;1.45;;
54157;SDS011;40065;49.894;10.358;2023-07-20T17:57:18;5.30;;;1.60;;
54157;SDS011;40065;49.894;10.358;2023-07-20T18:02:20;3.60;;;1.40;;
54157;SDS011;40065;49.894;10.358;2023-07-20T18:07:26;5.35;;;1.80;;
54157;SDS011;40065;49.894;10.358;2023-07-20T18:12:29;2.90;;;1.85;;
54157;SDS011;40065;49.894;10.358;2023-07-20T18:17:32;3.50;;;2.08;;
54157;SDS011;40065;49.894;10.358;2023-07-20T18:22:34;2.67;;;1.70;;
54157;SDS011;40065;49.894;10.358;2023-07-20T18:27:37;3.20;;;1.83;;
54157;SDS011;40065;49.894;10.358;2023-07-20T18:32:39;3.28;;;1.75;;
54157;SDS011;40065;49.894;10.358;2023-07-20T18:37:41;4.45;;;2.03;;
54157;SDS011;40065;49.894;10.358;2023-07-20T18:42:43;4.15;;;1.60;;
54157;SDS011;40065;49.894;10.358;2023-07-20T18:47:45;4.35;;;2.05;;
54157;SDS011;40065;49.894;10.358;2023-07-20T18:57:52;2.20;;;1.60;;
54157;SDS011;40065;49.894;10.358;2023-07-20T19:02:54;4.47;;;1.98;;
54157;SDS011;40065;49.894;10.358;2023-07-20T19:07:56;5.38;;;2.00;;
54157;SDS011;40065;49.894;10.358;2023-07-20T19:13:01;3.63;;;1.83;;
54157;SDS011;40065;49.894;10.358;2023-07-20T19:18:03;3.00;;;1.92;;
54157;SDS011;40065;49.894;10.358;2023-07-20T19:23:05;4.00;;;2.47;;
54157;SDS011;40065;49.894;10.358;2023-07-20T19:28:06;4.40;;;2.22;;
54157;SDS011;40065;49.894;10.358;2023-07-20T19:33:08;3.30;;;2.10;;
54157;SDS011;40065;49.894;10.358;2023-07-20T19:38:10;21.88;;;2.83;;
54157;SDS011;40065;49.894;10.358;2023-07-20T19:43:13;8.48;;;2.28;;
54157;SDS011;40065;49.894;10.358;2023-07-20T19:48:16;3.08;;;1.90;;
54157;SDS011;40065;49.894;10.358;2023-07-20T19:53:21;2.97;;;2.10;;
54157;SDS011;40065;49.894;10.358;2023-07-20T19:58:26;3.10;;;2.05;;
54157;SDS011;40065;49.894;10.358;2023-07-20T20:03:28;3.92;;;2.00;;
54157;SDS011;40065;49.894;10.358;2023-07-20T20:08:33;2.83;;;1.80;;
54157;SDS011;40065;49.894;10.358;2023-07-20T20:13:35;2.90;;;2.20;;
54157;SDS011;40065;49.894;10.358;2023-07-20T20:18:36;3.00;;;1.88;;
54157;SDS011;40065;49.894;10.358;2023-07-20T20:23:44;3.45;;;1.67;;
54157;SDS011;40065;49.894;10.358;2023-07-20T20:28:46;7.15;;;2.22;;
54157;SDS011;40065;49.894;10.358;2023-07-20T20:33:48;3.60;;;2.33;;
54157;SDS011;40065;49.894;10.358;2023-07-20T20:38:50;4.97;;;2.22;;
54157;SDS011;40065;49.894;10.358;2023-07-20T20:43:52;3.92;;;1.95;;
54157;SDS011;40065;49.894;10.358;2023-07-20T20:48:54;2.78;;;1.83;;
54157;SDS011;40065;49.894;10.358;2023-07-20T20:53:55;3.30;;;1.92;;
54157;SDS011;40065;49.894;10.358;2023-07-20T20:58:57;4.82;;;2.10;;
54157;SDS011;40065;49.894;10.358;2023-07-20T21:03:59;3.40;;;2.10;;
54157;SDS011;40065;49.894;10.358;2023-07-20T21:09:01;6.22;;;2.25;;
54157;SDS011;40065;49.894;10.358;2023-07-20T21:14:03;3.70;;;2.15;;
54157;SDS011;40065;49.894;10.358;2023-07-20T21:19:05;2.53;;;1.80;;
54157;SDS011;40065;49.894;10.358;2023-07-20T21:24:08;3.33;;;2.03;;
54157;SDS011;40065;49.894;10.358;2023-07-20T21:29:10;3.75;;;2.13;;
54157;SDS011;40065;49.894;10.358;2023-07-20T21:34:12;3.83;;;1.92;;
54157;SDS011;40065;49.894;10.358;2023-07-20T21:39:15;2.37;;;1.60;;
54157;SDS011;40065;49.894;10.358;2023-07-20T21:44:17;2.72;;;1.75;;
54157;SDS011;40065;49.894;10.358;2023-07-20T21:49:19;3.95;;;1.88;;
54157;SDS011;40065;49.894;10.358;2023-07-20T21:54:21;3.08;;;1.58;;
54157;SDS011;40065;49.894;10.358;2023-07-20T21:59:23;2.47;;;1.38;;
54157;SDS011;40065;49.894;10.358;2023-07-20T22:04:25;2.60;;;1.30;;
54157;SDS011;40065;49.894;10.358;2023-07-20T22:09:27;2.25;;;1.48;;
54157;SDS011;40065;49.894;10.358;2023-07-20T22:14:29;2.88;;;1.60;;
54157;SDS011;40065;49.894;10.358;2023-07-20T22:19:31;2.90;;;1.90;;
54157;SDS011;40065;49.894;10.358;2023-07-20T22:24:34;2.22;;;1.50;;
54157;SDS011;40065;49.894;10.358;2023-07-20T22:29:36;3.97;;;1.50;;
54157;SDS011;40065;49.894;10.358;2023-07-20T22:34:38;4.35;;;1.45;;
54157;SDS011;40065;49.894;10.358;2023-07-20T22:39:40;2.75;;;1.77;;
54157;SDS011;40065;49.894;10.358;2023-07-20T22:44:42;3.00;;;1.70;;
54157;SDS011;40065;49.894;10.358;2023-07-20T22:49:43;2.72;;;1.73;;
54157;SDS011;40065;49.894;10.358;2023-07-20T22:54:45;3.30;;;1.60;;
54157;SDS011;40065;49.894;10.358;2023-07-20T22:59:47;3.10;;;1.73;;
54157;SDS011;40065;49.894;10.358;2023-07-20T23:04:49;2.38;;;1.65;;
54157;SDS011;40065;49.894;10.358;2023-07-20T23:09:54;4.15;;;1.60;;
54157;SDS011;40065;49.894;10.358;2023-07-20T23:14:56;2.15;;;1.75;;
54157;SDS011;40065;49.894;10.358;2023-07-20T23:19:58;3.10;;;2.03;;
54157;SDS011;40065;49.894;10.358;2023-07-20T23:25:00;2.88;;;1.70;;
54157;SDS011;40065;49.894;10.358;2023-07-20T23:30:02;2.40;;;1.70;;
54157;SDS011;40065;49.894;10.358;2023-07-20T23:35:05;2.40;;;1.38;;
54157;SDS011;40065;49.894;10.358;2023-07-20T23:40:08;2.87;;;1.40;;
54157;SDS011;40065;49.894;10.358;2023-07-20T23:45:15;1.80;;;1.20;;
54157;SDS011;40065;49.894;10.358;2023-07-20T23:50:17;2.53;;;1.27;;
54157;SDS011;40065;49.894;10.358;2023-07-20T23:55:19;3.40;;;1.85;;
